sensor_id;sensor_type;location;lat;lon;timestamp;pressure;altitude;pressure_sealevel;temperature;humidity
18504;BME280;9381;54.244;10.074;2023-07-20T00:03:30;100649.94;;;16.92;98.93
18504;BME280;9381;54.244;10.074;2023-07-20T00:08:30;100661.25;;;16.74;99.88
18504;BME280;9381;54.244;10.074;2023-07-20T00:13:30;100649.75;;;16.72;100.00
18504;BME280;9381;54.244;10.074;2023-07-20T00:18:31;100652.03;;;16.80;99.21
18504;BME280;9381;54.244;10.074;2023-07-20T00:23:31;100646.31;;;16.81;99.31
18504;BME280;9381;54.244;10.074;2023-07-20T00:28:31;100645.44;;;16.76;99.53
18504;BME280;9381;54.244;10.074;2023-07-20T00:33:32;100647.09;;;16.77;99.96
18504;BME280;9381;54.244;10.074;2023-07-20T00:38:32;100650.59;;;16.72;100.00
18504;BME280;9381;54.244;10.074;2023-07-20T00:43:33;100636.66;;;16.74;99.71
18504;BME280;9381;54.244;10.074;2023-07-20T00:48:33;100641.00;;;16.70;99.59
18504;BME280;9381;54.244;10.074;2023-07-20T00:53:34;100636.47;;;16.54;99.73
18504;BME280;9381;54.244;10.074;2023-07-20T00:58:35;100644.09;;;16.52;100.00
18504;BME280;9381;54.244;10.074;2023-07-20T01:03:35;100644.09;;;16.52;99.90
18504;BME280;9381;54.244;10.074;2023-07-20T01:08:43;100646.47;;;16.22;100.00
18504;BME280;9381;54.244;10.074;2023-07-20T01:13:46;100651.03;;;16.16;100.00
18504;BME280;9381;54.244;10.074;2023-07-20T01:18:46;100653.38;;;16.08;100.00
18504;BME280;9381;54.244;10.074;2023-07-20T01:24:05;100661.63;;;16.13;100.00
18504;BME280;9381;54.244;10.074;2023-07-20T01:29:43;100655.22;;;16.02;100.00
18504;BME280;9381;54.244;10.074;2023-07-20T01:34:52;100652.25;;;16.04;100.00
18504;BME280;9381;54.244;10.074;2023-07-20T01:39:54;100660.44;;;16.04;100.00
18504;BME280;9381;54.244;10.074;2023-07-20T01:44:57;100661.44;;;15.98;100.00
18504;BME280;9381;54.244;10.074;2023-07-20T01:49:57;100656.75;;;15.93;100.00
18504;BME280;9381;54.244;10.074;2023-07-20T01:54:58;100657.59;;;15.94;100.00
18504;BME280;9381;54.244;10.074;2023-07-20T01:59:58;100655.59;;;15.89;100.00
18504;BME280;9381;54.244;10.074;2023-07-20T02:04:58;100643.72;;;15.79;100.00
18504;BME280;9381;54.244;10.074;2023-07-20T02:09:59;100656.47;;;15.73;100.00
18504;BME280;9381;54.244;10.074;2023-07-20T02:14:59;100649.56;;;15.66;100.00
18504;BME280;9381;54.244;10.074;2023-07-20T02:20:00;100651.34;;;15.77;100.00
18504;BME280;9381;54.244;10.074;2023-07-20T02:25:00;100646.22;;;15.80;100.00
18504;BME280;9381;54.244;10.074;2023-07-20T02:30:01;100647.59;;;15.83;100.00
18504;BME280;9381;54.244;10.074;2023-07-20T02:35:01;100640.31;;;15.88;100.00
18504;BME280;9381;54.244;10.074;2023-07-20T02:40:04;100636.25;;;15.91;100.00
18504;BME280;9381;54.244;10.074;2023-07-20T02:45:05;100629.78;;;15.97;100.00
18504;BME280;9381;54.244;10.074;2023-07-20T02:50:07;100625.47;;;16.01;100.00
18504;BME280;9381;54.244;10.074;2023-07-20T02:55:08;100630.75;;;16.07;100.00
18504;BME280;9381;54.244;10.074;2023-07-20T03:00:09;100635.69;;;16.10;100.00
18504;BME280;9381;54.244;10.074;2023-07-20T03:05:09;100649.69;;;15.76;100.00
18504;BME280;9381;54.244;10.074;2023-07-20T03:10:10;100641.47;;;15.92;100.00
18504;BME280;9381;54.244;10.074;2023-07-20T03:15:10;100651.34;;;15.77;100.00
18504;BME280;9381;54.244;10.074;2023-07-20T03:20:11;100649.31;;;15.89;100.00
18504;BME280;9381;54.244;10.074;2023-07-20T03:25:12;100655.28;;;15.86;100.00
18504;BME280;9381;54.244;10.074;2023-07-20T03:30:13;100649.84;;;15.86;100.00
18504;BME280;9381;54.244;10.074;2023-07-20T03:35:13;100653.81;;;15.78;100.00
18504;BME280;9381;54.244;10.074;2023-07-20T03:40:15;100656.34;;;15.63;100.00
18504;BME280;9381;54.244;10.074;2023-07-20T03:45:16;100659.25;;;15.78;100.00
18504;BME280;9381;54.244;10.074;2023-07-20T03:50:17;100652.91;;;15.73;100.00
18504;BME280;9381;54.244;10.074;2023-07-20T03:55:17;100657.94;;;15.81;100.00
18504;BME280;9381;54.244;10.074;2023-07-20T04:00:18;100656.72;;;15.72;100.00
18504;BME280;9381;54.244;10.074;2023-07-20T04:05:18;100653.00;;;15.78;100.00
18504;BME280;9381;54.244;10.074;2023-07-20T04:10:19;100656.38;;;15.85;100.00
18504;BME280;9381;54.244;10.074;2023-07-20T04:15:19;100661.22;;;15.83;100.00
18504;BME280;9381;54.244;10.074;2023-07-20T04:20:19;100656.81;;;15.77;100.00
18504;BME280;9381;54.244;10.074;2023-07-20T04:25:20;100669.16;;;15.84;100.00
18504;BME280;9381;54.244;10.074;2023-07-20T04:30:20;100661.09;;;15.73;100.00
18504;BME280;9381;54.244;10.074;2023-07-20T04:40:49;100660.28;;;15.56;100.00
18504;BME280;9381;54.244;10.074;2023-07-20T04:45:50;100669.56;;;15.55;100.00
18504;BME280;9381;54.244;10.074;2023-07-20T04:50:50;100672.31;;;15.76;100.00
18504;BME280;9381;54.244;10.074;2023-07-20T04:55:50;100673.88;;;15.89;100.00
18504;BME280;9381;54.244;10.074;2023-07-20T05:00:52;100671.28;;;15.99;100.00
18504;BME280;9381;54.244;10.074;2023-07-20T05:05:52;100678.69;;;16.03;100.00
18504;BME280;9381;54.244;10.074;2023-07-20T05:10:52;100678.00;;;16.13;100.00
18504;BME280;9381;54.244;10.074;2023-07-20T05:15:53;100676.47;;;16.00;100.00
18504;BME280;9381;54.244;10.074;2023-07-20T05:20:53;100679.66;;;16.14;100.00
18504;BME280;9381;54.244;10.074;2023-07-20T05:25:58;100687.53;;;16.32;100.00
18504;BME280;9381;54.244;10.074;2023-07-20T05:30:59;100676.75;;;16.42;100.00
18504;BME280;9381;54.244;10.074;2023-07-20T05:35:59;100670.72;;;16.40;100.00
18504;BME280;9381;54.244;10.074;2023-07-20T05:41:00;100672.34;;;16.62;100.00
18504;BME280;9381;54.244;10.074;2023-07-20T05:46:03;100665.22;;;16.88;99.23
18504;BME280;9381;54.244;10.074;2023-07-20T05:51:05;100670.47;;;16.94;99.42
18504;BME280;9381;54.244;10.074;2023-07-20T05:56:06;100679.69;;;17.15;97.55
18504;BME280;9381;54.244;10.074;2023-07-20T06:01:06;100672.56;;;17.14;97.05
18504;BME280;9381;54.244;10.074;2023-07-20T06:06:06;100665.22;;;17.51;96.24
18504;BME280;9381;54.244;10.074;2023-07-20T06:11:09;100655.88;;;17.47;95.55
18504;BME280;9381;54.244;10.074;2023-07-20T06:16:10;100663.72;;;17.70;93.18
18504;BME280;9381;54.244;10.074;2023-07-20T06:21:10;100655.25;;;17.71;92.26
18504;BME280;9381;54.244;10.074;2023-07-20T06:26:11;100651.81;;;18.00;91.33
18504;BME280;9381;54.244;10.074;2023-07-20T06:31:11;100656.16;;;17.87;89.23
18504;BME280;9381;54.244;10.074;2023-07-20T06:36:11;100662.59;;;18.22;87.43
18504;BME280;9381;54.244;10.074;2023-07-20T06:41:12;100669.31;;;18.46;87.42
18504;BME280;9381;54.244;10.074;2023-07-20T06:46:12;100665.75;;;18.55;86.38
18504;BME280;9381;54.244;10.074;2023-07-20T06:51:13;100666.38;;;18.77;85.19
18504;BME280;9381;54.244;10.074;2023-07-20T06:56:13;100658.13;;;18.82;84.42
18504;BME280;9381;54.244;10.074;2023-07-20T07:01:14;100662.25;;;18.95;82.10
18504;BME280;9381;54.244;10.074;2023-07-20T07:06:15;100656.50;;;19.11;82.31
18504;BME280;9381;54.244;10.074;2023-07-20T07:11:15;100655.41;;;19.02;82.33
18504;BME280;9381;54.244;10.074;2023-07-20T07:16:15;100655.97;;;18.94;82.72
18504;BME280;9381;54.244;10.074;2023-07-20T07:21:18;100657.34;;;18.92;83.34
18504;BME280;9381;54.244;10.074;2023-07-20T07:26:19;100665.84;;;19.10;81.08
18504;BME280;9381;54.244;10.074;2023-07-20T07:31:19;100654.88;;;19.30;80.54
18504;BME280;9381;54.244;10.074;2023-07-20T07:36:19;100646.63;;;19.55;79.32
18504;BME280;9381;54.244;10.074;2023-07-20T07:41:20;100660.63;;;19.59;77.20
18504;BME280;9381;54.244;10.074;2023-07-20T07:46:21;100665.56;;;19.67;77.45
18504;BME280;9381;54.244;10.074;2023-07-20T07:51:21;100662.44;;;20.08;77.14
18504;BME280;9381;54.244;10.074;2023-07-20T07:56:21;100662.97;;;20.15;76.82
18504;BME280;9381;54.244;10.074;2023-07-20T08:01:22;100665.16;;;20.18;76.03
18504;BME280;9381;54.244;10.074;2023-07-20T08:06:23;100660.78;;;20.12;75.42
18504;BME280;9381;54.244;10.074;2023-07-20T08:11:24;100661.72;;;20.46;75.14
18504;BME280;9381;54.244;10.074;2023-07-20T08:16:24;100652.75;;;20.79;73.90
18504;BME280;9381;54.244;10.074;2023-07-20T08:21:24;100669.41;;;20.49;76.13
18504;BME280;9381;54.244;10.074;2023-07-20T08:26:25;100664.63;;;20.16;79.80
18504;BME280;9381;54.244;10.074;2023-07-20T08:31:25;100673.28;;;20.43;80.52
18504;BME280;9381;54.244;10.074;2023-07-20T08:36:25;100672.97;;;20.55;79.05
18504;BME280;9381;54.244;10.074;2023-07-20T08:41:27;100660.78;;;21.14;76.01
18504;BME280;9381;54.244;10.074;2023-07-20T08:46:28;100662.63;;;21.52;73.91
18504;BME280;9381;54.244;10.074;2023-07-20T08:51:29;100661.91;;;21.41;73.00
18504;BME280;9381;54.244;10.074;2023-07-20T08:56:31;100665.38;;;21.52;73.01
18504;BME280;9381;54.244;10.074;2023-07-20T09:01:34;100674.88;;;21.36;70.84
18504;BME280;9381;54.244;10.074;2023-07-20T09:06:36;100672.50;;;20.38;75.76
18504;BME280;9381;54.244;10.074;2023-07-20T09:11:36;100675.34;;;20.66;79.29
18504;BME280;9381;54.244;10.074;2023-07-20T09:16:53;100678.00;;;20.38;80.59
18504;BME280;9381;54.244;10.074;2023-07-20T09:21:54;100703.16;;;19.36;87.64
18504;BME280;9381;54.244;10.074;2023-07-20T09:26:55;100700.97;;;19.18;92.45
18504;BME280;9381;54.244;10.074;2023-07-20T09:32:05;100706.44;;;19.13;92.47
18504;BME280;9381;54.244;10.074;2023-07-20T09:37:05;100698.59;;;20.30;97.64
18504;BME280;9381;54.244;10.074;2023-07-20T09:42:06;100706.63;;;20.75;88.48
18504;BME280;9381;54.244;10.074;2023-07-20T09:47:08;100703.25;;;20.93;85.27
18504;BME280;9381;54.244;10.074;2023-07-20T09:52:08;100714.34;;;20.78;86.85
18504;BME280;9381;54.244;10.074;2023-07-20T09:57:09;100720.69;;;20.74;87.79
18504;BME280;9381;54.244;10.074;2023-07-20T10:02:25;100719.38;;;20.56;86.81
18504;BME280;9381;54.244;10.074;2023-07-20T10:07:30;100717.31;;;20.92;89.23
18504;BME280;9381;54.244;10.074;2023-07-20T10:12:31;100707.25;;;22.06;87.10
18504;BME280;9381;54.244;10.074;2023-07-20T10:17:33;100706.16;;;23.46;83.82
18504;BME280;9381;54.244;10.074;2023-07-20T10:22:36;100695.06;;;24.64;78.06
18504;BME280;9381;54.244;10.074;2023-07-20T10:27:38;100680.50;;;24.32;71.52
18504;BME280;9381;54.244;10.074;2023-07-20T10:32:40;100719.16;;;21.73;75.76
18504;BME280;9381;54.244;10.074;2023-07-20T10:37:48;100714.94;;;20.70;80.12
18504;BME280;9381;54.244;10.074;2023-07-20T10:42:59;100708.38;;;20.56;85.90
18504;BME280;9381;54.244;10.074;2023-07-20T10:48:03;100699.38;;;21.37;89.46
18504;BME280;9381;54.244;10.074;2023-07-20T10:53:10;100706.91;;;22.36;87.93
18504;BME280;9381;54.244;10.074;2023-07-20T10:58:13;100703.50;;;23.23;83.07
18504;BME280;9381;54.244;10.074;2023-07-20T11:03:27;100726.53;;;23.32;79.17
18504;BME280;9381;54.244;10.074;2023-07-20T11:08:43;100719.69;;;22.27;79.05
18504;BME280;9381;54.244;10.074;2023-07-20T11:13:54;100716.97;;;22.22;82.32
18504;BME280;9381;54.244;10.074;2023-07-20T11:18:55;100715.16;;;21.89;81.43
18504;BME280;9381;54.244;10.074;2023-07-20T11:23:56;100722.78;;;21.68;82.83
18504;BME280;9381;54.244;10.074;2023-07-20T11:28:58;100729.53;;;21.14;82.27
18504;BME280;9381;54.244;10.074;2023-07-20T11:33:58;100724.75;;;20.81;85.00
18504;BME280;9381;54.244;10.074;2023-07-20T11:38:58;100714.81;;;21.62;79.92
18504;BME280;9381;54.244;10.074;2023-07-20T11:43:59;100712.94;;;22.98;79.93
18504;BME280;9381;54.244;10.074;2023-07-20T11:49:00;100718.28;;;22.06;70.29
18504;BME280;9381;54.244;10.074;2023-07-20T11:54:01;100728.03;;;21.65;74.28
18504;BME280;9381;54.244;10.074;2023-07-20T11:59:02;100724.06;;;21.09;74.07
18504;BME280;9381;54.244;10.074;2023-07-20T12:04:03;100718.66;;;22.46;76.20
18504;BME280;9381;54.244;10.074;2023-07-20T12:09:03;100707.16;;;23.37;71.54
18504;BME280;9381;54.244;10.074;2023-07-20T12:14:07;100711.16;;;23.07;72.34
18504;BME280;9381;54.244;10.074;2023-07-20T12:19:12;100714.31;;;23.38;71.29
18504;BME280;9381;54.244;10.074;2023-07-20T12:24:13;100712.66;;;24.01;70.05
18504;BME280;9381;54.244;10.074;2023-07-20T12:29:13;100721.03;;;23.96;64.77
18504;BME280;9381;54.244;10.074;2023-07-20T12:34:13;100695.66;;;25.10;69.30
18504;BME280;9381;54.244;10.074;2023-07-20T12:39:14;100702.44;;;24.15;69.30
18504;BME280;9381;54.244;10.074;2023-07-20T12:44:14;100722.47;;;23.29;70.53
18504;BME280;9381;54.244;10.074;2023-07-20T12:49:14;100719.28;;;22.15;74.51
18504;BME280;9381;54.244;10.074;2023-07-20T12:54:15;100720.34;;;23.03;75.78
18504;BME280;9381;54.244;10.074;2023-07-20T12:59:15;100721.28;;;23.17;74.37
18504;BME280;9381;54.244;10.074;2023-07-20T13:04:17;100706.06;;;23.19;70.44
18504;BME280;9381;54.244;10.074;2023-07-20T13:09:17;100715.59;;;23.59;68.05
18504;BME280;9381;54.244;10.074;2023-07-20T13:14:18;100730.13;;;23.14;67.62
18504;BME280;9381;54.244;10.074;2023-07-20T13:19:18;100727.22;;;22.45;64.83
18504;BME280;9381;54.244;10.074;2023-07-20T13:24:19;100738.06;;;21.51;64.27
18504;BME280;9381;54.244;10.074;2023-07-20T13:29:19;100730.06;;;21.49;66.64
18504;BME280;9381;54.244;10.074;2023-07-20T13:34:19;100732.72;;;22.87;64.94
18504;BME280;9381;54.244;10.074;2023-07-20T13:39:19;100724.28;;;22.60;65.63
18504;BME280;9381;54.244;10.074;2023-07-20T13:44:21;100728.75;;;22.93;65.69
18504;BME280;9381;54.244;10.074;2023-07-20T13:49:21;100735.59;;;22.58;67.41
18504;BME280;9381;54.244;10.074;2023-07-20T13:54:21;100730.19;;;23.09;68.69
18504;BME280;9381;54.244;10.074;2023-07-20T13:59:22;100721.16;;;23.72;68.03
18504;BME280;9381;54.244;10.074;2023-07-20T14:04:23;100718.19;;;24.01;66.66
18504;BME280;9381;54.244;10.074;2023-07-20T14:09:23;100714.22;;;24.47;66.14
18504;BME280;9381;54.244;10.074;2023-07-20T14:14:24;100732.19;;;23.91;63.16
18504;BME280;9381;54.244;10.074;2023-07-20T14:19:24;100733.94;;;23.18;64.83
18504;BME280;9381;54.244;10.074;2023-07-20T14:24:25;100724.66;;;23.27;61.96
18504;BME280;9381;54.244;10.074;2023-07-20T14:29:26;100733.47;;;23.48;64.25
18504;BME280;9381;54.244;10.074;2023-07-20T14:34:27;100734.88;;;23.77;65.31
18504;BME280;9381;54.244;10.074;2023-07-20T14:39:27;100727.88;;;23.53;63.82
18504;BME280;9381;54.244;10.074;2023-07-20T14:44:27;100738.78;;;23.26;63.32
18504;BME280;9381;54.244;10.074;2023-07-20T14:49:27;100738.78;;;23.26;61.34
18504;BME280;9381;54.244;10.074;2023-07-20T14:54:28;100739.66;;;23.40;63.76
18504;BME280;9381;54.244;10.074;2023-07-20T14:59:28;100740.13;;;23.28;63.77
18504;BME280;9381;54.244;10.074;2023-07-20T15:04:28;100742.34;;;23.08;62.60
18504;BME280;9381;54.244;10.074;2023-07-20T15:09:29;100738.81;;;22.84;64.80
18504;BME280;9381;54.244;10.074;2023-07-20T15:14:29;100733.06;;;22.80;65.89
18504;BME280;9381;54.244;10.074;2023-07-20T15:19:29;100741.97;;;22.54;59.25
18504;BME280;9381;54.244;10.074;2023-07-20T15:24:30;100738.44;;;22.72;61.40
18504;BME280;9381;54.244;10.074;2023-07-20T15:29:30;100737.06;;;22.51;61.84
18504;BME280;9381;54.244;10.074;2023-07-20T15:34:30;100737.13;;;22.17;65.35
18504;BME280;9381;54.244;10.074;2023-07-20T15:39:31;100743.22;;;21.91;66.01
18504;BME280;9381;54.244;10.074;2023-07-20T15:44:31;100750.16;;;22.12;67.32
18504;BME280;9381;54.244;10.074;2023-07-20T15:49:32;100757.34;;;21.79;65.41
18504;BME280;9381;54.244;10.074;2023-07-20T15:54:33;100768.53;;;21.21;62.18
18504;BME280;9381;54.244;10.074;2023-07-20T15:59:34;100765.78;;;21.64;65.53
18504;BME280;9381;54.244;10.074;2023-07-20T16:04:35;100757.22;;;21.61;67.09
18504;BME280;9381;54.244;10.074;2023-07-20T16:09:35;100754.31;;;21.47;67.68
18504;BME280;9381;54.244;10.074;2023-07-20T16:14:36;100739.19;;;21.45;67.92
18504;BME280;9381;54.244;10.074;2023-07-20T16:19:38;100741.84;;;21.55;69.60
18504;BME280;9381;54.244;10.074;2023-07-20T16:24:39;100729.72;;;21.61;69.65
18504;BME280;9381;54.244;10.074;2023-07-20T16:29:39;100728.38;;;21.53;68.07
18504;BME280;9381;54.244;10.074;2023-07-20T16:34:39;100739.88;;;21.65;68.77
18504;BME280;9381;54.244;10.074;2023-07-20T16:39:40;100750.28;;;21.35;70.11
18504;BME280;9381;54.244;10.074;2023-07-20T16:44:40;100742.25;;;21.05;70.95
18504;BME280;9381;54.244;10.074;2023-07-20T16:49:40;100744.06;;;20.71;70.84
18504;BME280;9381;54.244;10.074;2023-07-20T16:54:41;100740.50;;;20.66;70.94
18504;BME280;9381;54.244;10.074;2023-07-20T16:59:41;100732.75;;;20.78;71.23
18504;BME280;9381;54.244;10.074;2023-07-20T17:04:41;100735.63;;;21.06;71.42
18504;BME280;9381;54.244;10.074;2023-07-20T17:09:42;100730.16;;;21.01;69.17
18504;BME280;9381;54.244;10.074;2023-07-20T17:14:42;100732.09;;;21.01;68.73
18504;BME280;9381;54.244;10.074;2023-07-20T17:19:42;100737.69;;;20.86;68.26
18504;BME280;9381;54.244;10.074;2023-07-20T17:24:43;100734.53;;;21.02;70.19
18504;BME280;9381;54.244;10.074;2023-07-20T17:29:43;100740.63;;;20.99;69.56
18504;BME280;9381;54.244;10.074;2023-07-20T17:34:43;100730.47;;;20.95;69.21
18504;BME280;9381;54.244;10.074;2023-07-20T17:39:44;100722.00;;;20.81;68.78
18504;BME280;9381;54.244;10.074;2023-07-20T17:44:44;100728.63;;;20.75;68.65
18504;BME280;9381;54.244;10.074;2023-07-20T17:49:44;100724.81;;;20.66;69.18
18504;BME280;9381;54.244;10.074;2023-07-20T17:54:45;100724.91;;;20.46;69.63
18504;BME280;9381;54.244;10.074;2023-07-20T17:59:45;100722.75;;;20.38;68.79
18504;BME280;9381;54.244;10.074;2023-07-20T18:04:45;100728.06;;;20.15;70.32
18504;BME280;9381;54.244;10.074;2023-07-20T18:09:46;100722.34;;;19.81;70.66
18504;BME280;9381;54.244;10.074;2023-07-20T18:14:47;100716.88;;;19.61;70.00
18504;BME280;9381;54.244;10.074;2023-07-20T18:19:47;100719.06;;;19.69;71.77
18504;BME280;9381;54.244;10.074;2023-07-20T18:24:49;100719.06;;;19.79;72.14
18504;BME280;9381;54.244;10.074;2023-07-20T18:29:49;100708.06;;;19.74;72.00
18504;BME280;9381;54.244;10.074;2023-07-20T18:34:51;100717.97;;;19.55;72.16
18504;BME280;9381;54.244;10.074;2023-07-20T18:39:51;100721.84;;;19.59;72.34
18504;BME280;9381;54.244;10.074;2023-07-20T18:44:51;100729.50;;;19.27;72.93
18504;BME280;9381;54.244;10.074;2023-07-20T18:49:52;100724.28;;;19.31;73.69
18504;BME280;9381;54.244;10.074;2023-07-20T18:54:56;100728.94;;;19.30;73.70
18504;BME280;9381;54.244;10.074;2023-07-20T18:59:58;100730.56;;;19.16;74.24
18504;BME280;9381;54.244;10.074;2023-07-20T19:04:58;100732.25;;;19.22;74.57
18504;BME280;9381;54.244;10.074;2023-07-20T19:09:59;100728.34;;;19.03;75.62
18504;BME280;9381;54.244;10.074;2023-07-20T19:14:59;100740.38;;;18.92;76.20
18504;BME280;9381;54.244;10.074;2023-07-20T19:20:00;100736.75;;;18.67;76.88
18504;BME280;9381;54.244;10.074;2023-07-20T19:25:00;100738.13;;;18.74;77.40
18504;BME280;9381;54.244;10.074;2023-07-20T19:30:01;100744.75;;;18.78;77.76
18504;BME280;9381;54.244;10.074;2023-07-20T19:35:01;100749.56;;;18.56;78.60
18504;BME280;9381;54.244;10.074;2023-07-20T19:40:02;100751.72;;;18.39;79.75
18504;BME280;9381;54.244;10.074;2023-07-20T19:45:03;100754.88;;;18.21;80.56
18504;BME280;9381;54.244;10.074;2023-07-20T19:50:04;100762.50;;;18.19;81.11
18504;BME280;9381;54.244;10.074;2023-07-20T19:55:06;100769.16;;;17.87;82.83
18504;BME280;9381;54.244;10.074;2023-07-20T20:00:07;100762.03;;;17.86;82.80
18504;BME280;9381;54.244;10.074;2023-07-20T20:05:11;100761.59;;;17.63;84.32
18504;BME280;9381;54.244;10.074;2023-07-20T20:10:12;100766.50;;;17.61;84.33
18504;BME280;9381;54.244;10.074;2023-07-20T20:15:12;100771.13;;;17.60;84.64
18504;BME280;9381;54.244;10.074;2023-07-20T20:20:12;100780.59;;;17.48;85.49
18504;BME280;9381;54.244;10.074;2023-07-20T20:25:13;100783.75;;;17.08;87.23
18504;BME280;9381;54.244;10.074;2023-07-20T20:30:13;100780.19;;;17.08;87.80
18504;BME280;9381;54.244;10.074;2023-07-20T20:35:13;100782.34;;;17.06;87.69
18504;BME280;9381;54.244;10.074;2023-07-20T20:40:15;100774.09;;;16.79;89.10
18504;BME280;9381;54.244;10.074;2023-07-20T20:45:15;100772.53;;;16.83;89.04
18504;BME280;9381;54.244;10.074;2023-07-20T20:50:15;100783.56;;;16.67;89.94
18504;BME280;9381;54.244;10.074;2023-07-20T20:55:19;100770.69;;;16.67;90.17
18504;BME280;9381;54.244;10.074;2023-07-20T21:00:23;100774.91;;;16.53;90.96
18504;BME280;9381;54.244;10.074;2023-07-20T21:05:24;100769.25;;;16.60;90.84
18504;BME280;9381;54.244;10.074;2023-07-20T21:10:24;100761.19;;;16.48;91.65
18504;BME280;9381;54.244;10.074;2023-07-20T21:15:25;100770.38;;;16.42;92.54
18504;BME280;9381;54.244;10.074;2023-07-20T21:20:26;100760.81;;;16.40;92.63
18504;BME280;9381;54.244;10.074;2023-07-20T21:25:26;100770.34;;;16.21;93.85
18504;BME280;9381;54.244;10.074;2023-07-20T21:30:27;100764.94;;;16.26;93.70
18504;BME280;9381;54.244;10.074;2023-07-20T21:35:28;100764.44;;;16.07;94.47
18504;BME280;9381;54.244;10.074;2023-07-20T21:40:28;100763.69;;;16.12;94.69
18504;BME280;9381;54.244;10.074;2023-07-20T21:45:29;100763.16;;;16.15;94.79
18504;BME280;9381;54.244;10.074;2023-07-20T21:50:29;100765.00;;;16.09;95.12
18504;BME280;9381;54.244;10.074;2023-07-20T21:55:29;100763.69;;;16.12;94.58
18504;BME280;9381;54.244;10.074;2023-07-20T22:00:30;100767.47;;;16.11;94.25
18504;BME280;9381;54.244;10.074;2023-07-20T22:05:30;100761.38;;;15.87;95.36
18504;BME280;9381;54.244;10.074;2023-07-20T22:10:31;100768.25;;;15.90;95.47
18504;BME280;9381;54.244;10.074;2023-07-20T22:15:31;100758.25;;;15.95;95.02
18504;BME280;9381;54.244;10.074;2023-07-20T22:20:33;100762.75;;;15.85;95.44
18504;BME280;9381;54.244;10.074;2023-07-20T22:25:34;100756.28;;;15.74;94.65
18504;BME280;9381;54.244;10.074;2023-07-20T22:30:34;100766.13;;;15.59;94.46
18504;BME280;9381;54.244;10.074;2023-07-20T22:35:35;100755.13;;;15.54;95.99
18504;BME280;9381;54.244;10.074;2023-07-20T22:40:35;100754.16;;;15.60;95.47
18504;BME280;9381;54.244;10.074;2023-07-20T22:45:35;100748.53;;;15.50;94.49
18504;BME280;9381;54.244;10.074;2023-07-20T22:50:36;100748.38;;;15.40;95.24
18504;BME280;9381;54.244;10.074;2023-07-20T22:55:36;100754.97;;;15.44;94.27
18504;BME280;9381;54.244;10.074;2023-07-20T23:00:37;100750.66;;;15.31;94.29
18504;BME280;9381;54.244;10.074;2023-07-20T23:05:37;100747.72;;;15.33;93.96
18504;BME280;9381;54.244;10.074;2023-07-20T23:10:38;100751.13;;;15.28;93.20
18504;BME280;9381;54.244;10.074;2023-07-20T23:15:38;100747.50;;;15.23;94.43
18504;BME280;9381;54.244;10.074;2023-07-20T23:20:38;100743.59;;;15.19;94.33
18504;BME280;9381;54.244;10.074;2023-07-20T23:25:39;100744.22;;;15.21;94.26
18504;BME280;9381;54.244;10.074;2023-07-20T23:30:39;100748.47;;;15.17;93.86
18504;BME280;9381;54.244;10.074;2023-07-20T23:35:48;100740.69;;;15.09;96.72
18504;BME280;9381;54.244;10.074;2023-07-20T23:40:48;100738.09;;;15.14;98.44
18504;BME280;9381;54.244;10.074;2023-07-20T23:45:48;100726.69;;;15.17;99.28
18504;BME280;9381;54.244;10.074;2023-07-20T23:50:49;100730.50;;;15.32;98.46
18504;BME280;9381;54.244;10.074;2023-07-20T23:55:49;100727.22;;;15.30;98.70
